Terminal Aerodrome Forecast
Issued by NWS

Home | Current Version | Previous Version | Text Only | Print | Product List | Glossary On
Versions: 1 2 3 4 5 6 7 8 9 10 11 12 13 14 15 16
000
FTAK31 PANC 232337
TAFAVD
TAF
PAVD 232337Z 2400/2424 08008KT P6SM BKN200
      TEMPO 2400/2403 11015G25KT
     FM241100 VRB03KT 5SM -SN BKN025
     FM241300 VRB03KT 3SM -SN BR BKN015
     FM241900 VRB03KT 5SM -SN SCT015 BKN030
     FM242100 06005KT P6SM SCT035 BKN070
      AMD LTD TO CLD VIS AND WIND=

USA.gov is the U.S. government's official web portal to all federal, state and local government web resources and services.